Hlavní strana
METAR-TAF:

METAR-TAF

Letiště :

Letiště Plzeň Líně

Plzeň, Česká republika

zeměpisná šířka: 49-40-31N, zeměpisná délka: 13-16-29E, výška: 362 m

Aktuální stav počasí

Zpráva byla vytvořena před 15 minutami, v 17:00 UTC
Severní vítr 3 kt
Teplota 2°C
Vlhkost vzduchu 75%
Tlak 1032 hPa
Viditelnost 10 km a více
Žádná oblačnost pod 1500 m, nevyskytují se cumulonimby.

METAR: LKLN 171700Z AUTO 36003KT CAVOK 02/M02 Q1032

Čas: 18:15 (17:15 UTC)


TAF: chybějící

Stav a předpovědi počasí z více než 4 000 letišť (zprávy METAR a TAF).

Červené a žluté tečky na mapě představují dostupné meteorologické stanice.

Když kurzor umístíte na tečku, zobrazí se název stanice.

Pak kliknutím zobrazíte stav a předpověď počasí.

Chcete-li změnit mapu, kliknutím na zelené tlačítko se znaménkem +mapu přiblížíte, kliknutím na zelené tlačítko se znaménkem – mapu oddálíte a kliknutím na zelené šipky přejdete na sousední mapy.


METAR-TAF: